sensor_id;sensor_type;location;lat;lon;timestamp;pressure;altitude;pressure_sealevel;temperature;humidity
20825;BME280;10573;50.936;6.978;2022-07-03T00:01:00;101298.31;;;21.68;47.27
20825;BME280;10573;50.936;6.978;2022-07-03T00:03:26;101297.69;;;21.66;47.16
20825;BME280;10573;50.936;6.978;2022-07-03T00:05:51;101302.78;;;21.62;47.46
20825;BME280;10573;50.936;6.978;2022-07-03T00:08:17;101296.34;;;21.62;47.49
20825;BME280;10573;50.936;6.978;2022-07-03T00:10:42;101288.59;;;21.51;47.89
20825;BME280;10573;50.936;6.978;2022-07-03T00:13:07;101288.59;;;21.51;47.77
20825;BME280;10573;50.936;6.978;2022-07-03T00:15:33;101277.94;;;21.48;48.11
20825;BME280;10573;50.936;6.978;2022-07-03T00:17:58;101283.47;;;21.48;47.92
20825;BME280;10573;50.936;6.978;2022-07-03T00:20:28;101283.84;;;21.44;47.99
20825;BME280;10573;50.936;6.978;2022-07-03T00:22:56;101293.50;;;21.49;47.98
20825;BME280;10573;50.936;6.978;2022-07-03T00:25:24;101287.97;;;21.49;47.83
20825;BME280;10573;50.936;6.978;2022-07-03T00:27:50;101292.19;;;21.44;48.23
20825;BME280;10573;50.936;6.978;2022-07-03T00:30:15;101292.19;;;21.44;47.92
20825;BME280;10573;50.936;6.978;2022-07-03T00:32:41;101285.56;;;21.45;47.97
20825;BME280;10573;50.936;6.978;2022-07-03T00:35:08;101293.69;;;21.47;47.75
20825;BME280;10573;50.936;6.978;2022-07-03T00:37:34;101296.28;;;21.49;47.95
20825;BME280;10573;50.936;6.978;2022-07-03T00:39:59;101300.09;;;21.48;48.20
20825;BME280;10573;50.936;6.978;2022-07-03T00:42:27;101306.38;;;21.28;49.36
20825;BME280;10573;50.936;6.978;2022-07-03T00:44:59;101297.47;;;21.04;49.83
20825;BME280;10573;50.936;6.978;2022-07-03T00:47:26;101303.66;;;21.06;49.95
20825;BME280;10573;50.936;6.978;2022-07-03T00:49:56;101296.28;;;20.92;50.20
20825;BME280;10573;50.936;6.978;2022-07-03T00:52:22;101300.88;;;20.78;50.47
20825;BME280;10573;50.936;6.978;2022-07-03T00:54:56;101296.59;;;20.75;50.92
20825;BME280;10573;50.936;6.978;2022-07-03T00:57:25;101298.06;;;20.71;51.04
20825;BME280;10573;50.936;6.978;2022-07-03T00:59:51;101301.34;;;20.82;50.57
20825;BME280;10573;50.936;6.978;2022-07-03T01:02:55;101299.16;;;20.77;50.97
20825;BME280;10573;50.936;6.978;2022-07-03T01:05:38;101287.72;;;20.65;51.12
20825;BME280;10573;50.936;6.978;2022-07-03T01:13:18;101284.06;;;20.58;51.56
20825;BME280;10573;50.936;6.978;2022-07-03T01:21:18;101282.59;;;20.40;51.98
20825;BME280;10573;50.936;6.978;2022-07-03T01:26:41;101277.47;;;20.37;52.33
20825;BME280;10573;50.936;6.978;2022-07-03T01:29:08;101274.44;;;20.32;52.54
20825;BME280;10573;50.936;6.978;2022-07-03T01:31:38;101266.91;;;20.26;52.70
20825;BME280;10573;50.936;6.978;2022-07-03T01:34:10;101270.72;;;20.03;53.77
20825;BME280;10573;50.936;6.978;2022-07-03T01:36:40;101264.00;;;20.12;53.46
20825;BME280;10573;50.936;6.978;2022-07-03T01:39:10;101271.09;;;20.00;53.91
20825;BME280;10573;50.936;6.978;2022-07-03T01:41:36;101265.69;;;19.92;53.90
20825;BME280;10573;50.936;6.978;2022-07-03T01:44:02;101265.97;;;19.97;53.68
20825;BME280;10573;50.936;6.978;2022-07-03T01:46:30;101265.31;;;19.80;54.70
20825;BME280;10573;50.936;6.978;2022-07-03T01:48:57;101265.97;;;19.67;55.18
20825;BME280;10573;50.936;6.978;2022-07-03T01:51:24;101265.06;;;19.60;55.59
20825;BME280;10573;50.936;6.978;2022-07-03T01:53:51;101264.41;;;19.58;55.82
20825;BME280;10573;50.936;6.978;2022-07-03T01:56:19;101267.25;;;19.65;55.88
20825;BME280;10573;50.936;6.978;2022-07-03T01:58:45;101264.66;;;19.63;55.96
20825;BME280;10573;50.936;6.978;2022-07-03T02:07:29;101261.91;;;19.48;56.95
20825;BME280;10573;50.936;6.978;2022-07-03T02:10:05;101263.06;;;19.39;57.48
20825;BME280;10573;50.936;6.978;2022-07-03T02:12:52;101260.88;;;19.34;57.75
20825;BME280;10573;50.936;6.978;2022-07-03T02:15:31;101253.25;;;19.36;57.71
20825;BME280;10573;50.936;6.978;2022-07-03T02:17:57;101258.50;;;19.31;57.99
20825;BME280;10573;50.936;6.978;2022-07-03T02:20:25;101249.53;;;19.29;58.30
20825;BME280;10573;50.936;6.978;2022-07-03T02:22:57;101256.09;;;19.13;58.49
20825;BME280;10573;50.936;6.978;2022-07-03T02:30:28;101258.28;;;19.03;59.33
20825;BME280;10573;50.936;6.978;2022-07-03T02:32:56;101262.38;;;18.92;59.66
20825;BME280;10573;50.936;6.978;2022-07-03T02:35:27;101260.78;;;18.74;60.24
20825;BME280;10573;50.936;6.978;2022-07-03T02:37:59;101265.94;;;18.77;60.27
20825;BME280;10573;50.936;6.978;2022-07-03T02:40:45;101261.47;;;18.76;60.48
20825;BME280;10573;50.936;6.978;2022-07-03T02:46:05;101258.44;;;18.86;60.11
20825;BME280;10573;50.936;6.978;2022-07-03T02:48:51;101265.31;;;18.90;60.18
20825;BME280;10573;50.936;6.978;2022-07-03T02:51:22;101263.94;;;18.86;60.69
20825;BME280;10573;50.936;6.978;2022-07-03T02:54:04;101267.44;;;18.88;60.24
20825;BME280;10573;50.936;6.978;2022-07-03T02:59:44;101274.22;;;18.77;60.95
20825;BME280;10573;50.936;6.978;2022-07-03T03:05:16;101274.78;;;18.73;60.91
20825;BME280;10573;50.936;6.978;2022-07-03T03:08:16;101277.09;;;18.61;61.28
20825;BME280;10573;50.936;6.978;2022-07-03T03:10:39;101279.13;;;18.67;61.23
20825;BME280;10573;50.936;6.978;2022-07-03T03:13:14;101271.47;;;18.54;61.54
20825;BME280;10573;50.936;6.978;2022-07-03T03:15:58;101268.81;;;18.61;61.60
20825;BME280;10573;50.936;6.978;2022-07-03T03:18:28;101267.94;;;18.45;62.55
20825;BME280;10573;50.936;6.978;2022-07-03T03:20:59;101266.59;;;18.41;62.68
20825;BME280;10573;50.936;6.978;2022-07-03T03:24:03;101273.47;;;18.45;62.65
20825;BME280;10573;50.936;6.978;2022-07-03T03:26:29;101272.19;;;18.33;63.23
20825;BME280;10573;50.936;6.978;2022-07-03T03:28:56;101273.81;;;18.19;63.80
20825;BME280;10573;50.936;6.978;2022-07-03T03:31:24;101284.13;;;18.25;63.83
20825;BME280;10573;50.936;6.978;2022-07-03T03:33:50;101289.88;;;18.16;64.26
20825;BME280;10573;50.936;6.978;2022-07-03T03:36:17;101288.66;;;18.18;64.24
20825;BME280;10573;50.936;6.978;2022-07-03T03:38:44;101285.66;;;18.28;64.17
20825;BME280;10573;50.936;6.978;2022-07-03T03:41:10;101286.31;;;18.30;64.04
20825;BME280;10573;50.936;6.978;2022-07-03T03:43:36;101291.13;;;18.36;63.88
20825;BME280;10573;50.936;6.978;2022-07-03T03:46:02;101284.13;;;18.25;64.06
20825;BME280;10573;50.936;6.978;2022-07-03T03:48:29;101288.34;;;18.36;63.80
20825;BME280;10573;50.936;6.978;2022-07-03T03:50:55;101282.53;;;18.31;64.04
20825;BME280;10573;50.936;6.978;2022-07-03T03:53:23;101293.19;;;18.34;64.04
20825;BME280;10573;50.936;6.978;2022-07-03T03:56:01;101293.19;;;18.34;64.04
20825;BME280;10573;50.936;6.978;2022-07-03T03:58:31;101290.47;;;18.26;64.30
20825;BME280;10573;50.936;6.978;2022-07-03T04:00:57;101296.06;;;18.18;64.94
20825;BME280;10573;50.936;6.978;2022-07-03T04:03:24;101295.53;;;18.22;64.82
20825;BME280;10573;50.936;6.978;2022-07-03T04:05:50;101298.09;;;18.24;64.78
20825;BME280;10573;50.936;6.978;2022-07-03T04:08:16;101295.69;;;18.21;64.86
20825;BME280;10573;50.936;6.978;2022-07-03T04:10:41;101296.44;;;18.15;65.22
20825;BME280;10573;50.936;6.978;2022-07-03T04:13:06;101296.63;;;18.13;65.51
20825;BME280;10573;50.936;6.978;2022-07-03T04:15:32;101303.97;;;18.21;65.14
20825;BME280;10573;50.936;6.978;2022-07-03T04:17:57;101308.63;;;18.20;65.41
20825;BME280;10573;50.936;6.978;2022-07-03T04:20:24;101305.31;;;18.25;65.12
20825;BME280;10573;50.936;6.978;2022-07-03T04:22:49;101318.88;;;18.11;65.45
20825;BME280;10573;50.936;6.978;2022-07-03T04:25:17;101319.91;;;18.10;65.97
20825;BME280;10573;50.936;6.978;2022-07-03T04:27:42;101320.25;;;18.07;65.87
20825;BME280;10573;50.936;6.978;2022-07-03T04:30:08;101322.66;;;18.10;66.00
20825;BME280;10573;50.936;6.978;2022-07-03T04:32:38;101334.66;;;18.18;65.74
20825;BME280;10573;50.936;6.978;2022-07-03T04:35:05;101330.69;;;18.20;65.12
20825;BME280;10573;50.936;6.978;2022-07-03T04:37:31;101333.91;;;18.32;65.03
20825;BME280;10573;50.936;6.978;2022-07-03T04:39:56;101338.19;;;18.35;64.78
20825;BME280;10573;50.936;6.978;2022-07-03T04:42:21;101341.81;;;18.35;64.55
20825;BME280;10573;50.936;6.978;2022-07-03T04:44:47;101331.47;;;18.37;64.75
20825;BME280;10573;50.936;6.978;2022-07-03T04:47:12;101332.94;;;18.48;63.78
20825;BME280;10573;50.936;6.978;2022-07-03T04:49:40;101331.34;;;18.54;64.06
20825;BME280;10573;50.936;6.978;2022-07-03T04:52:05;101335.06;;;18.61;63.99
20825;BME280;10573;50.936;6.978;2022-07-03T04:54:31;101337.47;;;18.64;63.83
20825;BME280;10573;50.936;6.978;2022-07-03T04:56:56;101343.59;;;18.51;64.33
20825;BME280;10573;50.936;6.978;2022-07-03T04:59:22;101329.91;;;18.58;64.21
20825;BME280;10573;50.936;6.978;2022-07-03T05:01:47;101315.16;;;18.51;64.28
20825;BME280;10573;50.936;6.978;2022-07-03T05:04:15;101319.91;;;18.57;64.04
20825;BME280;10573;50.936;6.978;2022-07-03T05:06:41;101322.88;;;18.55;63.67
20825;BME280;10573;50.936;6.978;2022-07-03T05:09:06;101316.75;;;18.68;63.32
20825;BME280;10573;50.936;6.978;2022-07-03T05:11:32;101319.56;;;18.60;63.42
20825;BME280;10573;50.936;6.978;2022-07-03T05:13:57;101322.59;;;18.65;63.58
20825;BME280;10573;50.936;6.978;2022-07-03T05:16:23;101329.34;;;18.86;62.81
20825;BME280;10573;50.936;6.978;2022-07-03T05:18:48;101344.84;;;18.95;61.33
20825;BME280;10573;50.936;6.978;2022-07-03T05:21:14;101355.00;;;18.94;61.44
20825;BME280;10573;50.936;6.978;2022-07-03T05:23:39;101353.06;;;19.03;61.43
20825;BME280;10573;50.936;6.978;2022-07-03T05:26:04;101351.06;;;19.12;61.73
20825;BME280;10573;50.936;6.978;2022-07-03T05:28:30;101353.84;;;19.27;60.97
20825;BME280;10573;50.936;6.978;2022-07-03T05:30:55;101351.06;;;19.27;61.03
20825;BME280;10573;50.936;6.978;2022-07-03T05:33:21;101356.34;;;19.37;60.47
20825;BME280;10573;50.936;6.978;2022-07-03T05:35:46;101347.19;;;19.36;61.66
20825;BME280;10573;50.936;6.978;2022-07-03T05:38:12;101358.94;;;19.53;60.29
20825;BME280;10573;50.936;6.978;2022-07-03T05:40:38;101356.84;;;19.55;60.09
20825;BME280;10573;50.936;6.978;2022-07-03T05:43:04;101359.97;;;19.67;60.37
20825;BME280;10573;50.936;6.978;2022-07-03T05:45:29;101366.75;;;19.79;58.50
20825;BME280;10573;50.936;6.978;2022-07-03T05:47:55;101379.84;;;19.86;57.69
20825;BME280;10573;50.936;6.978;2022-07-03T05:50:20;101371.06;;;19.97;57.25
20825;BME280;10573;50.936;6.978;2022-07-03T05:52:46;101363.16;;;20.09;56.09
20825;BME280;10573;50.936;6.978;2022-07-03T05:55:11;101372.84;;;20.20;55.57
20825;BME280;10573;50.936;6.978;2022-07-03T05:57:36;101365.06;;;20.30;54.47
20825;BME280;10573;50.936;6.978;2022-07-03T06:00:03;101365.06;;;20.30;53.80
20825;BME280;10573;50.936;6.978;2022-07-03T06:02:29;101361.81;;;20.41;53.94
20825;BME280;10573;50.936;6.978;2022-07-03T06:04:54;101362.66;;;20.42;53.13
20825;BME280;10573;50.936;6.978;2022-07-03T06:07:20;101365.00;;;20.60;53.13
20825;BME280;10573;50.936;6.978;2022-07-03T06:09:46;101359.16;;;20.70;52.64
20825;BME280;10573;50.936;6.978;2022-07-03T06:12:13;101363.16;;;20.67;52.24
20825;BME280;10573;50.936;6.978;2022-07-03T06:14:38;101365.41;;;20.78;52.22
20825;BME280;10573;50.936;6.978;2022-07-03T06:17:04;101362.06;;;20.83;51.89
20825;BME280;10573;50.936;6.978;2022-07-03T06:19:29;101370.94;;;21.00;51.65
20825;BME280;10573;50.936;6.978;2022-07-03T06:21:55;101368.06;;;21.08;50.35
20825;BME280;10573;50.936;6.978;2022-07-03T06:24:20;101374.59;;;21.01;50.74
20825;BME280;10573;50.936;6.978;2022-07-03T06:26:45;101374.13;;;21.25;50.91
20825;BME280;10573;50.936;6.978;2022-07-03T06:29:11;101370.38;;;21.33;50.07
20825;BME280;10573;50.936;6.978;2022-07-03T06:31:36;101373.50;;;21.52;49.49
20825;BME280;10573;50.936;6.978;2022-07-03T06:34:02;101372.31;;;21.61;49.25
20825;BME280;10573;50.936;6.978;2022-07-03T06:36:27;101376.81;;;21.69;49.21
20825;BME280;10573;50.936;6.978;2022-07-03T06:38:52;101374.78;;;21.84;49.06
20825;BME280;10573;50.936;6.978;2022-07-03T06:41:18;101386.50;;;21.79;48.68
20825;BME280;10573;50.936;6.978;2022-07-03T06:43:43;101386.25;;;21.74;48.20
20825;BME280;10573;50.936;6.978;2022-07-03T06:46:09;101388.56;;;21.71;48.62
20825;BME280;10573;50.936;6.978;2022-07-03T06:48:34;101386.00;;;21.69;49.46
20825;BME280;10573;50.936;6.978;2022-07-03T06:50:59;101393.34;;;21.84;48.87
20825;BME280;10573;50.936;6.978;2022-07-03T06:53:25;101387.38;;;21.87;48.26
20825;BME280;10573;50.936;6.978;2022-07-03T06:55:50;101383.41;;;22.03;48.40
20825;BME280;10573;50.936;6.978;2022-07-03T06:58:16;101387.72;;;22.12;47.79
20825;BME280;10573;50.936;6.978;2022-07-03T07:00:41;101393.94;;;22.21;47.63
20825;BME280;10573;50.936;6.978;2022-07-03T07:03:08;101387.22;;;21.95;47.98
20825;BME280;10573;50.936;6.978;2022-07-03T07:05:33;101393.09;;;22.20;47.93
20825;BME280;10573;50.936;6.978;2022-07-03T07:07:59;101386.72;;;22.33;48.15
20825;BME280;10573;50.936;6.978;2022-07-03T07:10:24;101389.38;;;22.41;47.24
20825;BME280;10573;50.936;6.978;2022-07-03T07:12:50;101392.75;;;22.37;48.20
20825;BME280;10573;50.936;6.978;2022-07-03T07:15:15;101386.38;;;22.36;47.75
20825;BME280;10573;50.936;6.978;2022-07-03T07:17:41;101391.06;;;22.42;48.00
20825;BME280;10573;50.936;6.978;2022-07-03T07:20:06;101384.06;;;22.60;47.95
20825;BME280;10573;50.936;6.978;2022-07-03T07:22:32;101383.50;;;22.85;46.65
20825;BME280;10573;50.936;6.978;2022-07-03T07:24:57;101382.19;;;22.81;46.59
20825;BME280;10573;50.936;6.978;2022-07-03T07:27:23;101367.03;;;22.90;46.56
20825;BME280;10573;50.936;6.978;2022-07-03T07:29:48;101375.16;;;22.85;46.12
20825;BME280;10573;50.936;6.978;2022-07-03T07:32:14;101372.34;;;22.71;46.70
20825;BME280;10573;50.936;6.978;2022-07-03T07:34:39;101373.81;;;22.54;46.19
20825;BME280;10573;50.936;6.978;2022-07-03T07:37:05;101378.28;;;22.41;45.87
20825;BME280;10573;50.936;6.978;2022-07-03T07:39:31;101387.72;;;22.67;46.14
20825;BME280;10573;50.936;6.978;2022-07-03T07:41:56;101382.63;;;22.91;45.46
20825;BME280;10573;50.936;6.978;2022-07-03T07:44:22;101385.41;;;22.84;45.38
20825;BME280;10573;50.936;6.978;2022-07-03T07:46:49;101371.69;;;22.62;45.88
20825;BME280;10573;50.936;6.978;2022-07-03T07:49:14;101380.94;;;22.90;45.35
20825;BME280;10573;50.936;6.978;2022-07-03T07:51:39;101370.47;;;23.05;44.95
20825;BME280;10573;50.936;6.978;2022-07-03T07:54:05;101370.69;;;23.10;44.51
20825;BME280;10573;50.936;6.978;2022-07-03T07:56:30;101377.50;;;23.01;44.56
20825;BME280;10573;50.936;6.978;2022-07-03T07:58:56;101367.69;;;23.05;45.16
20825;BME280;10573;50.936;6.978;2022-07-03T08:01:21;101380.75;;;23.11;45.32
20825;BME280;10573;50.936;6.978;2022-07-03T08:04:05;101374.31;;;23.38;45.09
20825;BME280;10573;50.936;6.978;2022-07-03T08:06:49;101382.47;;;23.39;44.87
20825;BME280;10573;50.936;6.978;2022-07-03T08:09:15;101383.75;;;23.50;45.49
20825;BME280;10573;50.936;6.978;2022-07-03T08:11:41;101376.66;;;23.61;44.96
20825;BME280;10573;50.936;6.978;2022-07-03T08:14:06;101374.25;;;23.71;45.29
20825;BME280;10573;50.936;6.978;2022-07-03T08:16:34;101381.31;;;23.80;44.94
20825;BME280;10573;50.936;6.978;2022-07-03T08:19:00;101375.78;;;23.60;45.34
20825;BME280;10573;50.936;6.978;2022-07-03T08:21:25;101376.38;;;23.96;45.13
20825;BME280;10573;50.936;6.978;2022-07-03T08:23:51;101379.16;;;23.96;44.66
20825;BME280;10573;50.936;6.978;2022-07-03T08:26:16;101374.03;;;23.93;44.61
20825;BME280;10573;50.936;6.978;2022-07-03T08:28:42;101383.44;;;24.05;44.30
20825;BME280;10573;50.936;6.978;2022-07-03T08:31:07;101385.78;;;24.02;44.38
20825;BME280;10573;50.936;6.978;2022-07-03T08:33:32;101390.22;;;24.23;43.55
20825;BME280;10573;50.936;6.978;2022-07-03T08:35:58;101388.03;;;24.25;43.15
20825;BME280;10573;50.936;6.978;2022-07-03T08:38:29;101390.00;;;24.18;43.66
20825;BME280;10573;50.936;6.978;2022-07-03T08:40:58;101390.28;;;24.48;43.43
20825;BME280;10573;50.936;6.978;2022-07-03T08:43:24;101398.47;;;24.43;42.41
20825;BME280;10573;50.936;6.978;2022-07-03T08:45:50;101382.00;;;24.35;42.51
20825;BME280;10573;50.936;6.978;2022-07-03T08:48:16;101379.03;;;24.68;41.68
20825;BME280;10573;50.936;6.978;2022-07-03T08:50:44;101375.19;;;25.01;40.94
20825;BME280;10573;50.936;6.978;2022-07-03T08:53:11;101377.81;;;25.21;41.50
20825;BME280;10573;50.936;6.978;2022-07-03T08:55:37;101376.75;;;25.48;41.35
20825;BME280;10573;50.936;6.978;2022-07-03T08:58:04;101380.47;;;25.60;40.65
20825;BME280;10573;50.936;6.978;2022-07-03T09:00:32;101377.16;;;25.70;39.76
20825;BME280;10573;50.936;6.978;2022-07-03T09:02:59;101378.78;;;26.15;39.08
20825;BME280;10573;50.936;6.978;2022-07-03T09:05:24;101381.22;;;26.29;39.12
20825;BME280;10573;50.936;6.978;2022-07-03T09:07:51;101381.38;;;26.46;37.84
20825;BME280;10573;50.936;6.978;2022-07-03T09:10:17;101377.22;;;26.37;39.03
20825;BME280;10573;50.936;6.978;2022-07-03T09:12:45;101378.53;;;26.84;37.61
20825;BME280;10573;50.936;6.978;2022-07-03T09:15:12;101390.56;;;26.54;38.28
20825;BME280;10573;50.936;6.978;2022-07-03T09:17:38;101368.78;;;27.40;37.04
20825;BME280;10573;50.936;6.978;2022-07-03T09:20:06;101367.44;;;27.78;36.24
20825;BME280;10573;50.936;6.978;2022-07-03T09:22:33;101369.16;;;26.90;36.77
20825;BME280;10573;50.936;6.978;2022-07-03T09:25:09;101368.09;;;26.60;37.33
20825;BME280;10573;50.936;6.978;2022-07-03T09:27:50;101364.59;;;27.31;36.19
20825;BME280;10573;50.936;6.978;2022-07-03T09:30:17;101359.28;;;27.41;36.10
20825;BME280;10573;50.936;6.978;2022-07-03T09:32:46;101365.97;;;27.64;35.22
20825;BME280;10573;50.936;6.978;2022-07-03T09:35:24;101370.50;;;27.65;36.02
20825;BME280;10573;50.936;6.978;2022-07-03T09:37:56;101365.03;;;28.80;33.70
20825;BME280;10573;50.936;6.978;2022-07-03T09:40:23;101363.88;;;29.10;33.57
20825;BME280;10573;50.936;6.978;2022-07-03T09:43:04;101359.38;;;30.27;30.71
20825;BME280;10573;50.936;6.978;2022-07-03T09:45:50;101354.50;;;30.99;29.61
20825;BME280;10573;50.936;6.978;2022-07-03T09:48:23;101360.69;;;30.96;30.19
20825;BME280;10573;50.936;6.978;2022-07-03T09:50:49;101359.19;;;31.16;29.93
20825;BME280;10573;50.936;6.978;2022-07-03T09:53:14;101350.41;;;30.79;29.60
20825;BME280;10573;50.936;6.978;2022-07-03T09:55:40;101363.28;;;31.03;30.19
20825;BME280;10573;50.936;6.978;2022-07-03T09:58:06;101345.81;;;31.38;28.66
20825;BME280;10573;50.936;6.978;2022-07-03T10:00:32;101344.75;;;30.74;30.20
20825;BME280;10573;50.936;6.978;2022-07-03T10:03:05;101349.44;;;30.96;30.73
20825;BME280;10573;50.936;6.978;2022-07-03T10:08:08;101360.38;;;29.20;32.44
20825;BME280;10573;50.936;6.978;2022-07-03T10:10:36;101349.78;;;30.01;31.48
20825;BME280;10573;50.936;6.978;2022-07-03T10:13:03;101345.09;;;31.10;31.21
20825;BME280;10573;50.936;6.978;2022-07-03T10:15:31;101349.00;;;31.09;29.76
20825;BME280;10573;50.936;6.978;2022-07-03T10:17:59;101343.75;;;31.23;29.31
20825;BME280;10573;50.936;6.978;2022-07-03T10:20:30;101345.50;;;30.42;32.47
20825;BME280;10573;50.936;6.978;2022-07-03T10:22:56;101339.13;;;31.92;29.19
20825;BME280;10573;50.936;6.978;2022-07-03T10:25:22;101342.41;;;32.37;28.86
20825;BME280;10573;50.936;6.978;2022-07-03T10:27:49;101354.13;;;32.08;28.27
20825;BME280;10573;50.936;6.978;2022-07-03T10:30:19;101346.88;;;32.28;28.54
20825;BME280;10573;50.936;6.978;2022-07-03T10:32:46;101336.84;;;32.73;28.27
20825;BME280;10573;50.936;6.978;2022-07-03T10:35:19;101334.91;;;33.00;27.78
20825;BME280;10573;50.936;6.978;2022-07-03T10:43:48;101333.97;;;30.17;30.70
20825;BME280;10573;50.936;6.978;2022-07-03T10:46:35;101337.63;;;30.99;30.91
20825;BME280;10573;50.936;6.978;2022-07-03T10:49:07;101332.25;;;31.30;30.98
20825;BME280;10573;50.936;6.978;2022-07-03T10:59:23;101314.78;;;33.42;27.33
20825;BME280;10573;50.936;6.978;2022-07-03T11:01:48;101321.16;;;34.50;25.11
20825;BME280;10573;50.936;6.978;2022-07-03T11:04:14;101315.91;;;34.33;25.51
20825;BME280;10573;50.936;6.978;2022-07-03T11:09:09;101322.13;;;33.49;25.90
20825;BME280;10573;50.936;6.978;2022-07-03T11:11:43;101318.47;;;33.48;25.83
20825;BME280;10573;50.936;6.978;2022-07-03T11:14:22;101318.34;;;34.44;25.17
20825;BME280;10573;50.936;6.978;2022-07-03T11:16:48;101318.56;;;34.03;26.37
20825;BME280;10573;50.936;6.978;2022-07-03T11:19:15;101311.81;;;33.99;26.28
20825;BME280;10573;50.936;6.978;2022-07-03T11:21:50;101305.25;;;34.54;25.41
20825;BME280;10573;50.936;6.978;2022-07-03T11:24:35;101310.03;;;34.08;25.67
20825;BME280;10573;50.936;6.978;2022-07-03T11:27:35;101309.31;;;33.77;26.09
20825;BME280;10573;50.936;6.978;2022-07-03T11:30:00;101302.81;;;34.76;24.89
20825;BME280;10573;50.936;6.978;2022-07-03T11:32:49;101311.88;;;34.84;25.07
20825;BME280;10573;50.936;6.978;2022-07-03T11:35:52;101307.09;;;34.39;25.20
20825;BME280;10573;50.936;6.978;2022-07-03T11:38:20;101304.00;;;34.36;25.20
20825;BME280;10573;50.936;6.978;2022-07-03T11:40:49;101304.88;;;33.50;26.29
20825;BME280;10573;50.936;6.978;2022-07-03T11:43:15;101296.63;;;33.64;26.66
20825;BME280;10573;50.936;6.978;2022-07-03T11:45:41;101290.72;;;34.31;25.33
20825;BME280;10573;50.936;6.978;2022-07-03T11:48:13;101301.88;;;34.57;24.97
20825;BME280;10573;50.936;6.978;2022-07-03T11:50:43;101292.53;;;35.50;24.39
20825;BME280;10573;50.936;6.978;2022-07-03T11:53:25;101298.13;;;35.55;24.44
20825;BME280;10573;50.936;6.978;2022-07-03T11:55:57;101296.72;;;33.38;27.01
20825;BME280;10573;50.936;6.978;2022-07-03T11:58:24;101291.25;;;33.83;26.43
20825;BME280;10573;50.936;6.978;2022-07-03T12:00:50;101296.72;;;33.43;26.79
20825;BME280;10573;50.936;6.978;2022-07-03T12:03:25;101295.50;;;33.70;27.78
20825;BME280;10573;50.936;6.978;2022-07-03T12:05:56;101298.03;;;34.77;25.12
20825;BME280;10573;50.936;6.978;2022-07-03T12:08:26;101292.53;;;35.98;23.89
20825;BME280;10573;50.936;6.978;2022-07-03T12:11:08;101293.66;;;36.73;23.27
20825;BME280;10573;50.936;6.978;2022-07-03T12:13:36;101283.13;;;35.25;24.51
20825;BME280;10573;50.936;6.978;2022-07-03T12:16:04;101287.66;;;33.52;26.53
20825;BME280;10573;50.936;6.978;2022-07-03T12:21:07;101283.50;;;32.67;27.13
20825;BME280;10573;50.936;6.978;2022-07-03T12:23:43;101289.25;;;33.89;26.11
20825;BME280;10573;50.936;6.978;2022-07-03T12:26:10;101275.22;;;34.58;25.11
20825;BME280;10573;50.936;6.978;2022-07-03T12:28:37;101279.13;;;34.27;25.91
20825;BME280;10573;50.936;6.978;2022-07-03T12:31:02;101271.06;;;34.00;26.44
20825;BME280;10573;50.936;6.978;2022-07-03T12:33:28;101271.84;;;35.49;24.09
20825;BME280;10573;50.936;6.978;2022-07-03T12:36:06;101259.38;;;36.12;23.41
20825;BME280;10573;50.936;6.978;2022-07-03T12:38:32;101270.59;;;36.61;22.95
20825;BME280;10573;50.936;6.978;2022-07-03T12:41:05;101273.19;;;34.24;25.58
20825;BME280;10573;50.936;6.978;2022-07-03T12:43:41;101273.63;;;33.05;27.38
20825;BME280;10573;50.936;6.978;2022-07-03T12:46:22;101274.00;;;34.35;25.08
20825;BME280;10573;50.936;6.978;2022-07-03T12:48:50;101265.50;;;35.33;23.94
20825;BME280;10573;50.936;6.978;2022-07-03T12:51:35;101269.34;;;36.34;23.48
20825;BME280;10573;50.936;6.978;2022-07-03T12:54:02;101260.41;;;35.06;24.85
20825;BME280;10573;50.936;6.978;2022-07-03T12:56:27;101273.09;;;31.73;28.39
20825;BME280;10573;50.936;6.978;2022-07-03T12:58:53;101281.97;;;33.67;26.30
20825;BME280;10573;50.936;6.978;2022-07-03T13:01:37;101273.06;;;35.14;24.24
20825;BME280;10573;50.936;6.978;2022-07-03T13:04:03;101265.88;;;35.51;23.40
20825;BME280;10573;50.936;6.978;2022-07-03T13:06:29;101264.53;;;35.91;24.03
20825;BME280;10573;50.936;6.978;2022-07-03T13:08:59;101256.78;;;37.48;21.49
20825;BME280;10573;50.936;6.978;2022-07-03T13:11:31;101265.31;;;37.48;21.52
20825;BME280;10573;50.936;6.978;2022-07-03T13:14:08;101272.59;;;37.40;22.00
20825;BME280;10573;50.936;6.978;2022-07-03T13:16:40;101263.84;;;37.51;21.42
20825;BME280;10573;50.936;6.978;2022-07-03T13:19:06;101278.81;;;37.42;21.31
20825;BME280;10573;50.936;6.978;2022-07-03T13:21:32;101263.63;;;37.75;21.49
20825;BME280;10573;50.936;6.978;2022-07-03T13:23:58;101275.78;;;38.31;20.87
20825;BME280;10573;50.936;6.978;2022-07-03T13:26:23;101279.50;;;36.35;22.24
20825;BME280;10573;50.936;6.978;2022-07-03T13:28:49;101283.31;;;36.83;22.29
20825;BME280;10573;50.936;6.978;2022-07-03T13:31:15;101276.16;;;36.66;22.07
20825;BME280;10573;50.936;6.978;2022-07-03T13:33:40;101276.59;;;36.40;22.62
20825;BME280;10573;50.936;6.978;2022-07-03T13:36:06;101274.31;;;35.56;23.52
20825;BME280;10573;50.936;6.978;2022-07-03T13:38:31;101283.53;;;35.13;24.24
20825;BME280;10573;50.936;6.978;2022-07-03T13:40:57;101290.44;;;34.33;24.32
20825;BME280;10573;50.936;6.978;2022-07-03T13:43:22;101283.41;;;35.77;23.46
20825;BME280;10573;50.936;6.978;2022-07-03T13:45:48;101266.63;;;36.95;22.61
20825;BME280;10573;50.936;6.978;2022-07-03T13:48:13;101277.75;;;37.52;21.20
20825;BME280;10573;50.936;6.978;2022-07-03T13:50:42;101283.56;;;37.47;21.02
20825;BME280;10573;50.936;6.978;2022-07-03T13:53:08;101284.88;;;37.22;21.36